createdAt,value
2018-12-03T00:01:51.669Z,94.90
2018-12-03T00:04:21.463Z,94.80
2018-12-03T00:06:49.740Z,95.20
2018-12-03T00:09:18.051Z,95.10
2018-12-03T00:11:45.979Z,95.40
2018-12-03T00:14:13.777Z,95.90
2018-12-03T00:16:41.674Z,96.00
2018-12-03T00:19:09.635Z,95.80
2018-12-03T00:21:38.152Z,96.20
2018-12-03T00:24:06.907Z,95.70
2018-12-03T00:26:34.958Z,96.00
2018-12-03T00:29:02.919Z,96.20
2018-12-03T00:31:31.154Z,96.30
2018-12-03T00:33:59.048Z,96.80
2018-12-03T00:36:26.937Z,97.00
2018-12-03T00:38:54.947Z,96.80
2018-12-03T00:41:22.843Z,97.10
2018-12-03T00:43:50.751Z,97.80
2018-12-03T00:46:18.810Z,98.10
2018-12-03T00:48:46.664Z,97.20
2018-12-03T00:51:14.666Z,97.30
2018-12-03T00:53:42.480Z,97.50
2018-12-03T00:56:10.280Z,98.10
2018-12-03T00:58:38.087Z,98.00
2018-12-03T01:01:06.059Z,98.20
2018-12-03T01:03:33.850Z,98.80
2018-12-03T01:06:01.631Z,99.00
2018-12-03T01:08:29.768Z,98.80
2018-12-03T01:10:57.563Z,98.10
2018-12-03T01:13:25.386Z,98.40
2018-12-03T01:15:53.531Z,98.60
2018-12-03T01:18:21.454Z,97.30
2018-12-03T01:20:49.380Z,97.30
2018-12-03T01:23:17.231Z,97.60
2018-12-03T01:25:45.059Z,98.20
2018-12-03T01:28:13.035Z,98.50
2018-12-03T01:30:43.185Z,98.40
2018-12-03T01:33:11.015Z,99.00
2018-12-03T01:35:39.888Z,99.50
2018-12-03T01:38:07.690Z,98.80
2018-12-03T01:40:35.457Z,98.70
2018-12-03T01:43:04.391Z,97.30
2018-12-03T01:45:32.231Z,96.50
2018-12-03T01:48:00.034Z,96.70
2018-12-03T01:50:27.880Z,96.50
2018-12-03T01:52:55.743Z,96.70
2018-12-03T01:55:23.656Z,96.30
2018-12-03T01:57:51.615Z,95.30
2018-12-03T02:00:19.927Z,95.20
2018-12-03T02:02:47.743Z,94.70
2018-12-03T02:05:15.708Z,94.90
2018-12-03T02:07:43.543Z,95.20
2018-12-03T02:10:12.428Z,95.30
2018-12-03T02:12:40.291Z,95.10
2018-12-03T02:15:13.353Z,95.90
2018-12-03T02:17:41.465Z,96.40
2018-12-03T02:20:10.884Z,96.90
2018-12-03T02:22:38.731Z,96.70
2018-12-03T02:25:07.767Z,96.40
2018-12-03T02:27:35.618Z,95.20
2018-12-03T02:30:05.480Z,95.80
2018-12-03T02:32:33.303Z,96.30
2018-12-03T02:35:01.092Z,95.90
2018-12-03T02:37:28.912Z,95.50
2018-12-03T02:39:56.755Z,95.10
2018-12-03T02:42:24.552Z,94.90
2018-12-03T02:44:52.354Z,94.90
2018-12-03T02:47:20.163Z,95.70
2018-12-03T02:49:47.964Z,96.60
2018-12-03T02:52:15.838Z,97.10
2018-12-03T02:54:43.745Z,97.50
2018-12-03T02:57:11.524Z,97.90
2018-12-03T02:59:39.310Z,97.90
2018-12-03T03:02:07.135Z,97.90
2018-12-03T03:04:34.969Z,98.10
2018-12-03T03:07:02.788Z,97.30
2018-12-03T03:09:30.565Z,96.90
2018-12-03T03:11:58.471Z,96.70
2018-12-03T03:14:26.267Z,96.30
2018-12-03T03:16:54.109Z,96.50
2018-12-03T03:19:21.936Z,96.30
2018-12-03T03:21:49.739Z,95.60
2018-12-03T03:24:17.532Z,95.00
2018-12-03T03:26:45.394Z,94.80
2018-12-03T03:29:13.238Z,94.10
2018-12-03T03:31:41.174Z,94.40
2018-12-03T03:34:09.150Z,94.20
2018-12-03T03:36:37.043Z,93.50
2018-12-03T03:39:07.139Z,93.50
2018-12-03T03:41:34.952Z,93.50
2018-12-03T03:44:03.142Z,93.30
2018-12-03T03:46:30.971Z,93.50
2018-12-03T03:48:58.812Z,93.20
2018-12-03T03:51:26.690Z,93.10
2018-12-03T03:53:54.683Z,94.00
2018-12-03T03:56:22.536Z,94.30
2018-12-03T03:58:51.211Z,94.50
2018-12-03T04:01:19.017Z,95.50
2018-12-03T04:03:46.903Z,96.10
2018-12-03T04:06:16.004Z,96.20
2018-12-03T04:08:43.790Z,96.10
2018-12-03T04:11:11.803Z,96.20
2018-12-03T04:13:39.611Z,96.30
2018-12-03T04:16:07.407Z,94.70
2018-12-03T04:18:35.220Z,95.10
2018-12-03T04:21:03.045Z,94.80
2018-12-03T04:23:30.905Z,95.30
2018-12-03T04:25:58.748Z,95.10
2018-12-03T04:28:26.786Z,95.00
2018-12-03T04:30:55.787Z,95.20
2018-12-03T04:33:23.640Z,93.70
2018-12-03T04:35:51.824Z,93.90
2018-12-03T04:38:19.679Z,93.00
2018-12-03T04:40:47.446Z,92.90
2018-12-03T04:43:15.256Z,92.40
2018-12-03T04:45:43.128Z,93.00
2018-12-03T04:48:11.156Z,93.30
2018-12-03T04:50:40.059Z,93.30
2018-12-03T04:53:08.090Z,93.70
2018-12-03T04:55:36.247Z,93.80
2018-12-03T04:58:04.237Z,94.80
2018-12-03T05:00:32.072Z,95.40
2018-12-03T05:02:59.964Z,95.80
2018-12-03T05:05:27.811Z,95.90
2018-12-03T05:07:55.603Z,95.90
2018-12-03T05:10:23.388Z,96.20
2018-12-03T05:12:52.373Z,96.80
2018-12-03T05:15:20.175Z,96.80
2018-12-03T05:17:47.990Z,97.10
2018-12-03T05:20:18.377Z,97.00
2018-12-03T05:22:46.234Z,96.60
2018-12-03T05:25:19.142Z,96.60
2018-12-03T05:27:42.349Z,96.90
2018-12-03T05:30:12.167Z,97.70
2018-12-03T05:32:40.461Z,97.30
2018-12-03T05:35:10.446Z,96.30
2018-12-03T05:37:38.304Z,95.30
2018-12-03T05:40:11.687Z,95.40
2018-12-03T05:42:39.567Z,95.80
2018-12-03T05:45:08.267Z,95.50
2018-12-03T05:47:36.102Z,96.00
2018-12-03T05:50:05.460Z,94.40
2018-12-03T05:52:33.234Z,93.40
2018-12-03T05:55:01.308Z,92.10
2018-12-03T05:57:29.103Z,92.30
2018-12-03T05:59:56.876Z,92.20
2018-12-03T06:02:24.695Z,92.30
2018-12-03T06:04:52.935Z,91.80
2018-12-03T06:07:20.843Z,91.70
2018-12-03T06:09:48.699Z,91.90
2018-12-03T06:12:16.591Z,92.10
2018-12-03T06:14:44.414Z,91.60
2018-12-03T06:17:12.584Z,91.60
2018-12-03T06:19:40.452Z,91.90
2018-12-03T06:22:08.395Z,91.40
2018-12-03T06:24:36.188Z,91.80
2018-12-03T06:27:04.334Z,92.70
2018-12-03T06:29:32.230Z,93.40
2018-12-03T06:32:00.165Z,94.10
2018-12-03T06:34:27.983Z,94.30
2018-12-03T06:36:55.816Z,94.50
2018-12-03T06:39:23.827Z,94.70
2018-12-03T06:41:51.630Z,94.90
2018-12-03T06:44:19.455Z,94.10
2018-12-03T06:46:47.331Z,94.00
2018-12-03T06:49:15.248Z,93.70
2018-12-03T06:51:43.279Z,93.70
2018-12-03T06:54:11.224Z,94.00
2018-12-03T06:56:39.043Z,94.10
2018-12-03T06:59:06.851Z,94.40
2018-12-03T07:01:34.636Z,94.00
2018-12-03T07:04:03.167Z,93.00
2018-12-03T07:06:31.015Z,92.90
2018-12-03T07:08:58.843Z,92.80
2018-12-03T07:11:26.651Z,93.00
2018-12-03T07:13:55.249Z,93.00
2018-12-03T07:16:23.062Z,92.80
2018-12-03T07:18:50.931Z,92.40
2018-12-03T07:21:18.744Z,91.80
2018-12-03T07:23:46.539Z,91.50
2018-12-03T07:26:14.447Z,91.70
2018-12-03T07:28:42.540Z,92.00
2018-12-03T07:31:11.668Z,92.40
2018-12-03T07:33:40.802Z,92.40
2018-12-03T07:36:08.626Z,92.60
2018-12-03T07:38:36.443Z,92.70
2018-12-03T07:41:05.413Z,92.10
2018-12-03T07:43:33.214Z,91.40
2018-12-03T07:46:01.068Z,90.50
2018-12-03T07:48:28.859Z,90.60
2018-12-03T07:50:56.648Z,90.50
2018-12-03T07:53:24.490Z,90.40
2018-12-03T07:55:52.280Z,88.30
2018-12-03T07:58:21.127Z,89.40
2018-12-03T08:00:51.767Z,89.90
2018-12-03T08:03:19.832Z,90.30
2018-12-03T08:05:47.648Z,89.20
2018-12-03T08:08:15.452Z,89.40
2018-12-03T08:10:45.742Z,90.30
2018-12-03T08:13:14.292Z,90.80
2018-12-03T08:15:42.463Z,91.10
2018-12-03T08:18:14.509Z,91.10
2018-12-03T08:20:45.691Z,91.30
2018-12-03T08:23:20.562Z,91.30
2018-12-03T08:25:48.357Z,90.80
2018-12-03T08:28:16.211Z,91.50
2018-12-03T08:30:44.302Z,91.70
2018-12-03T08:33:12.127Z,90.80
2018-12-03T08:35:39.977Z,91.30
2018-12-03T08:38:07.783Z,91.50
2018-12-03T08:40:35.598Z,92.00
2018-12-03T08:43:03.411Z,91.60
2018-12-03T08:45:31.191Z,91.10
2018-12-03T08:47:58.960Z,91.00
2018-12-03T08:50:27.855Z,91.00
2018-12-03T08:52:56.722Z,91.10
2018-12-03T08:55:24.494Z,91.50
2018-12-03T08:57:52.378Z,91.80
2018-12-03T09:00:26.409Z,91.70
2018-12-03T09:02:59.190Z,91.90
2018-12-03T09:05:30.416Z,91.30
2018-12-03T09:07:58.239Z,91.20
2018-12-03T09:10:26.056Z,91.30
2018-12-03T09:12:53.863Z,91.50
2018-12-03T09:15:21.779Z,91.20
2018-12-03T09:17:49.632Z,90.80
2018-12-03T09:20:17.417Z,90.70
2018-12-03T09:22:45.195Z,90.80
2018-12-03T09:25:23.182Z,90.90
2018-12-03T09:27:51.092Z,90.00
2018-12-03T09:30:18.977Z,89.60
2018-12-03T09:32:46.969Z,90.10
2018-12-03T09:35:14.916Z,90.20
2018-12-03T09:37:42.967Z,90.30
2018-12-03T09:40:13.770Z,90.50
2018-12-03T09:42:41.592Z,89.50
2018-12-03T09:45:13.187Z,89.20
2018-12-03T09:47:41.027Z,89.50
2018-12-03T09:50:24.037Z,88.50
2018-12-03T09:52:52.055Z,88.70
2018-12-03T09:55:22.923Z,88.90
2018-12-03T09:58:11.613Z,89.30
2018-12-03T10:00:39.461Z,89.80
2018-12-03T10:03:17.003Z,90.10
2018-12-03T10:05:49.607Z,90.30
2018-12-03T10:08:18.439Z,90.50
2018-12-03T10:10:49.407Z,90.70
2018-12-03T10:13:17.163Z,90.80
2018-12-03T10:15:44.979Z,90.70
2018-12-03T10:18:12.828Z,90.60
2018-12-03T10:20:42.262Z,90.60
2018-12-03T10:23:08.631Z,90.20
2018-12-03T10:25:36.431Z,89.60
2018-12-03T10:28:06.548Z,90.00
2018-12-03T10:30:34.371Z,89.90
2018-12-03T10:33:02.188Z,90.00
2018-12-03T10:35:38.800Z,90.40
2018-12-03T10:38:12.455Z,90.10
2018-12-03T10:40:42.428Z,90.00
2018-12-03T10:43:11.174Z,90.40
2018-12-03T10:45:39.019Z,90.00
2018-12-03T10:48:06.887Z,89.70
2018-12-03T10:50:35.111Z,89.50
2018-12-03T10:53:02.982Z,89.60
2018-12-03T10:55:31.015Z,89.10
2018-12-03T10:57:58.838Z,88.90
2018-12-03T11:00:32.091Z,89.00
2018-12-03T11:03:01.890Z,87.70
2018-12-03T11:05:36.487Z,86.50
2018-12-03T11:08:04.575Z,87.20
2018-12-03T11:10:34.879Z,88.10
2018-12-03T11:13:02.687Z,88.90
2018-12-03T11:15:30.575Z,88.40
2018-12-03T11:17:59.030Z,90.00
2018-12-03T11:20:26.879Z,89.80
2018-12-03T11:22:57.174Z,89.10
2018-12-03T11:25:28.671Z,88.90
2018-12-03T11:27:57.210Z,88.50
2018-12-03T11:30:25.093Z,89.40
2018-12-03T11:32:54.600Z,89.80
2018-12-03T11:35:25.319Z,89.60
2018-12-03T11:37:59.007Z,89.80
2018-12-03T11:41:00.522Z,89.60
2018-12-03T11:43:29.779Z,89.50
2018-12-03T11:45:57.651Z,88.20
2018-12-03T11:48:25.483Z,87.70
2018-12-03T11:50:53.334Z,86.60
2018-12-03T11:53:21.148Z,87.40
2018-12-03T11:55:48.935Z,87.80
2018-12-03T11:58:16.876Z,87.90
2018-12-03T12:00:44.914Z,86.80
2018-12-03T12:03:12.771Z,87.70
2018-12-03T12:05:40.535Z,86.90
2018-12-03T12:08:08.294Z,87.40
2018-12-03T12:10:36.071Z,86.80
2018-12-03T12:13:04.075Z,86.10
2018-12-03T12:15:31.938Z,86.20
2018-12-03T12:17:59.824Z,85.10
2018-12-03T12:20:27.631Z,85.10
2018-12-03T12:22:55.463Z,84.30
2018-12-03T12:25:23.243Z,83.60
2018-12-03T12:27:54.159Z,83.10
2018-12-03T12:30:22.032Z,83.50
2018-12-03T12:32:49.923Z,82.80
2018-12-03T12:35:17.759Z,83.90
2018-12-03T12:37:45.867Z,84.30
2018-12-03T12:40:13.944Z,84.80
2018-12-03T12:42:42.662Z,85.10
2018-12-03T12:45:13.683Z,85.80
2018-12-03T12:47:41.499Z,86.10
2018-12-03T12:50:12.991Z,86.90
2018-12-03T12:52:40.802Z,87.20
2018-12-03T12:55:08.639Z,87.40
2018-12-03T12:57:36.495Z,87.60
2018-12-03T13:00:15.529Z,87.70
2018-12-03T13:02:45.179Z,87.80
2018-12-03T13:05:13.096Z,87.70
2018-12-03T13:07:40.891Z,86.70
2018-12-03T13:10:11.681Z,85.90
2018-12-03T13:12:39.499Z,86.00
2018-12-03T13:15:10.607Z,85.20
2018-12-03T13:17:38.446Z,85.70
2018-12-03T13:20:09.999Z,86.00
2018-12-03T13:22:37.771Z,86.70
2018-12-03T13:25:11.190Z,86.90
2018-12-03T13:27:39.040Z,86.70
2018-12-03T13:30:10.372Z,87.50
2018-12-03T13:32:38.223Z,87.90
2018-12-03T13:35:07.456Z,88.20
2018-12-03T13:37:35.260Z,88.00
2018-12-03T13:40:03.307Z,88.40
2018-12-03T13:42:31.103Z,88.50
2018-12-03T13:44:59.461Z,87.90
2018-12-03T13:47:27.276Z,87.90
2018-12-03T13:49:55.058Z,88.20
2018-12-03T13:52:22.911Z,88.10
2018-12-03T13:54:50.759Z,88.40
2018-12-03T13:57:18.647Z,88.20
2018-12-03T13:59:46.595Z,88.60
2018-12-03T14:02:14.379Z,88.80
2018-12-03T14:04:42.239Z,88.50
2018-12-03T14:07:17.276Z,86.80
2018-12-03T14:10:07.993Z,86.00
2018-12-03T14:12:46.199Z,85.80
2018-12-03T14:15:24.822Z,85.40
2018-12-03T14:18:30.917Z,87.00
2018-12-03T14:21:19.059Z,88.50
2018-12-03T14:23:49.284Z,89.60
2018-12-03T14:26:17.249Z,90.10
2018-12-03T14:28:45.130Z,90.20
2018-12-03T14:31:12.962Z,90.30
2018-12-03T14:33:40.756Z,90.50
2018-12-03T14:36:08.895Z,90.30
2018-12-03T14:38:36.738Z,90.40
2018-12-03T14:41:04.636Z,90.60
2018-12-03T14:43:32.463Z,90.40
2018-12-03T14:46:00.287Z,90.50
2018-12-03T14:48:28.064Z,90.70
2018-12-03T14:50:55.879Z,90.80
2018-12-03T14:53:24.799Z,90.70
2018-12-03T14:55:52.690Z,90.60
2018-12-03T14:58:20.507Z,90.80
2018-12-03T15:00:48.355Z,90.80
2018-12-03T15:03:16.333Z,90.50
2018-12-03T15:05:44.147Z,90.10
2018-12-03T15:08:11.967Z,90.00
2018-12-03T15:10:39.783Z,89.90
2018-12-03T15:13:07.605Z,89.90
2018-12-03T15:15:35.416Z,89.70
2018-12-03T15:18:03.287Z,89.80
2018-12-03T15:20:31.103Z,89.10
2018-12-03T15:22:58.906Z,88.70
2018-12-03T15:25:26.683Z,87.90
2018-12-03T15:27:54.511Z,86.90
2018-12-03T15:30:22.321Z,87.20
2018-12-03T15:32:50.167Z,88.10
2018-12-03T15:35:18.108Z,88.80
2018-12-03T15:37:46.181Z,89.30
2018-12-03T15:40:15.604Z,89.80
2018-12-03T15:42:43.395Z,90.10
2018-12-03T15:45:13.191Z,90.30
2018-12-03T15:47:41.008Z,89.60
2018-12-03T15:50:08.854Z,89.60
2018-12-03T15:52:36.627Z,90.00
2018-12-03T15:55:05.511Z,90.30
2018-12-03T15:57:33.372Z,90.40
2018-12-03T16:00:01.263Z,90.30
2018-12-03T16:02:29.119Z,90.40
2018-12-03T16:04:56.941Z,90.60
2018-12-03T16:07:24.736Z,90.40
2018-12-03T16:09:52.535Z,90.40
2018-12-03T16:12:20.379Z,89.80
2018-12-03T16:14:48.292Z,89.90
2018-12-03T16:17:20.161Z,89.30
2018-12-03T16:19:44.180Z,89.50
2018-12-03T16:22:11.973Z,88.60
2018-12-03T16:24:40.035Z,88.80
2018-12-03T16:27:07.848Z,88.90
2018-12-03T16:29:35.658Z,88.20
2018-12-03T16:32:03.503Z,88.00
2018-12-03T16:34:31.304Z,86.60
2018-12-03T16:36:59.229Z,85.20
2018-12-03T16:39:27.003Z,82.10
2018-12-03T16:41:54.778Z,79.50
2018-12-03T16:44:22.631Z,78.80
2018-12-03T16:46:50.531Z,77.90
2018-12-03T16:49:18.553Z,77.90
2018-12-03T16:51:46.355Z,78.00
2018-12-03T16:54:14.159Z,77.80
2018-12-03T16:56:42.148Z,78.90
2018-12-03T16:59:09.964Z,78.50
2018-12-03T17:01:37.773Z,78.90
2018-12-03T17:04:05.658Z,79.10
2018-12-03T17:06:33.539Z,78.30
2018-12-03T17:09:01.335Z,78.10
2018-12-03T17:11:29.123Z,77.80
2018-12-03T17:13:56.952Z,77.60
2018-12-03T17:16:24.749Z,77.80
2018-12-03T17:18:52.544Z,78.90
2018-12-03T17:21:31.312Z,78.30
2018-12-03T17:24:05.339Z,78.20
2018-12-03T17:26:33.503Z,78.30
2018-12-03T17:29:01.320Z,78.70
2018-12-03T17:31:29.179Z,79.30
2018-12-03T17:33:56.940Z,78.60
2018-12-03T17:36:25.096Z,78.90
2018-12-03T17:38:53.116Z,77.30
2018-12-03T17:41:35.595Z,77.00
2018-12-03T17:44:04.000Z,78.10
2018-12-03T17:46:34.104Z,78.70
2018-12-03T17:49:01.999Z,79.30
2018-12-03T17:51:29.816Z,80.20
2018-12-03T17:53:57.599Z,81.00
2018-12-03T17:56:25.456Z,81.80
2018-12-03T17:58:56.229Z,82.20
2018-12-03T18:01:24.137Z,82.00
2018-12-03T18:03:51.957Z,82.30
